Time;durP1;ratioP1;P1;durP2;ratioP2;P2;SDS_P1;SDS_P2;PMS_P1;PMS_P2;Temp;Humidity;BMP_temperature;BMP_pressure;BME280_temperature;BME280_humidity;BME280_pressure;Samples;Min_cycle;Max_cycle;Signal;HPM_P1;HPM_P2
2021/12/08 05:04:31;;;;;;;58.72;27.98;;;;;;;-3.85;100.00;99953.50;5249678;33;34706;-88
2021/12/08 05:07:48;;;;;;;66.07;28.02;;;;;;;-3.83;100.00;99959.50;5253506;33;33679;-84
2021/12/08 05:10:52;;;;;;;59.72;28.95;;;;;;;-3.86;100.00;99957.94;5253690;33;33877;-84
2021/12/08 05:14:15;;;;;;;62.47;28.55;;;;;;;-3.85;100.00;99961.41;5253605;33;34171;-84
2021/12/08 05:17:25;;;;;;;61.35;26.98;;;;;;;-3.90;100.00;99948.53;5253431;33;34709;-84
2021/12/08 05:20:39;;;;;;;;;;;;;;;-3.92;100.00;99947.78;5253961;33;34498;-84
2021/12/08 05:23:44;;;;;;;59.22;26.90;;;;;;;-3.87;100.00;99948.34;5253377;33;34416;-84
2021/12/08 05:26:53;;;;;;;60.17;26.73;;;;;;;-3.89;100.00;99942.31;5252894;33;33688;-84
2021/12/08 05:30:07;;;;;;;57.85;26.30;;;;;;;-3.89;100.00;99948.44;5253045;33;35029;-84
2021/12/08 05:33:11;;;;;;;57.47;25.15;;;;;;;-3.87;100.00;99949.16;5253109;33;34093;-84
2021/12/08 05:36:17;;;;;;;56.33;25.67;;;;;;;-3.82;100.00;99946.25;5252977;33;34264;-84
2021/12/08 05:39:24;;;;;;;50.70;24.63;;;;;;;-3.79;100.00;99951.34;5252401;33;33866;-84
2021/12/08 05:42:33;;;;;;;50.47;24.50;;;;;;;-3.81;100.00;99937.44;5252870;33;34134;-84
2021/12/08 05:45:37;;;;;;;53.40;24.57;;;;;;;-3.81;100.00;99934.78;5252764;33;34306;-83
2021/12/08 05:48:42;;;;;;;61.35;25.90;;;;;;;-3.84;100.00;99936.78;5254694;33;35016;-83
2021/12/08 05:51:48;;;;;;;59.95;26.02;;;;;;;-3.81;100.00;99928.69;5255169;33;34048;-84
2021/12/08 05:54:52;;;;;;;61.53;25.35;;;;;;;-3.71;100.00;99922.75;5254844;33;34389;-87
2021/12/08 05:57:57;;;;;;;54.03;25.67;;;;;;;-3.69;100.00;99943.69;5255051;33;33804;-87
2021/12/08 06:01:24;;;;;;;55.00;26.12;;;;;;;-3.68;100.00;99943.59;5255918;33;34996;-84
2021/12/08 06:04:30;;;;;;;53.60;25.88;;;;;;;-3.69;100.00;99936.62;5276608;33;34355;-83
2021/12/08 06:07:33;;;;;;;56.70;26.95;;;;;;;-3.69;100.00;99949.78;5273484;33;33936;-84
2021/12/08 06:10:37;;;;;;;57.08;24.77;;;;;;;-3.67;100.00;99947.06;5273622;33;33873;-84
2021/12/08 06:13:42;;;;;;;53.92;25.35;;;;;;;-3.66;100.00;99954.00;5273040;33;34368;-84
2021/12/08 06:16:47;;;;;;;53.92;25.33;;;;;;;-3.69;100.00;99956.84;5272663;33;33726;-84
2021/12/08 06:19:49;;;;;;;60.22;26.15;;;;;;;-3.63;100.00;99955.59;5273067;33;33846;-84
2021/12/08 06:22:54;;;;;;;56.50;27.00;;;;;;;-3.60;100.00;99958.03;5272681;33;34320;-84
2021/12/08 06:25:58;;;;;;;60.58;26.52;;;;;;;-3.62;100.00;99962.59;5274693;33;33442;-84
2021/12/08 06:29:03;;;;;;;53.05;25.55;;;;;;;-3.66;100.00;99967.16;5274348;33;34456;-84
2021/12/08 06:32:09;;;;;;;55.88;26.90;;;;;;;-3.59;100.00;99970.28;5276614;33;34344;-84
2021/12/08 06:35:21;;;;;;;58.47;26.83;;;;;;;-3.60;100.00;99963.31;5276163;33;33697;-84
2021/12/08 06:38:25;;;;;;;52.65;25.15;;;;;;;-3.56;100.00;99959.56;5272633;33;34839;-83
2021/12/08 06:41:38;;;;;;;59.97;25.73;;;;;;;-3.55;100.00;99959.44;5267965;33;33794;-83
2021/12/08 06:44:45;;;;;;;52.60;26.02;;;;;;;-3.59;100.00;99957.97;5266164;33;34032;-83
2021/12/08 06:47:50;;;;;;;54.13;26.10;;;;;;;-3.56;100.00;99957.75;5266205;33;34294;-84
2021/12/08 06:51:09;;;;;;;54.63;26.20;;;;;;;-3.49;100.00;99955.56;5264981;33;34106;-83
2021/12/08 06:54:20;;;;;;;59.50;27.27;;;;;;;-3.40;100.00;99960.22;5267231;33;34002;-84
2021/12/08 06:57:28;;;;;;;59.17;27.20;;;;;;;-3.14;100.00;99953.28;5262083;33;33904;-84
2021/12/08 07:00:50;;;;;;;65.60;26.27;;;;;;;-3.15;100.00;99956.88;5264748;33;34639;-86
2021/12/08 07:07:27;;;;;;;57.05;27.42;;;;;;;-2.84;100.00;99954.81;5263801;33;33514;-84
2021/12/08 07:10:36;;;;;;;59.72;26.17;;;;;;;-2.64;100.00;99966.66;5263923;33;33819;-84
2021/12/08 07:13:39;;;;;;;56.28;25.17;;;;;;;-2.59;100.00;99960.12;5269465;33;34214;-84
2021/12/08 07:17:03;;;;;;;53.22;25.02;;;;;;;-2.53;100.00;99953.59;5270900;33;34719;-84
2021/12/08 07:20:28;;;;;;;58.55;25.90;;;;;;;-2.47;100.00;99949.69;5271918;33;33784;-84
2021/12/08 07:23:43;;;;;;;53.65;25.55;;;;;;;-2.47;100.00;99957.59;5274145;33;34058;-84
2021/12/08 07:26:49;;;;;;;52.10;25.45;;;;;;;-2.39;100.00;99963.19;5276073;33;33992;-84
2021/12/08 07:29:53;;;;;;;49.60;24.48;;;;;;;-2.29;100.00;99951.03;5272056;33;34454;-84
2021/12/08 07:32:57;;;;;;;53.40;25.98;;;;;;;-2.11;100.00;99948.91;5273108;33;33610;-84
2021/12/08 07:36:04;;;;;;;61.95;27.27;;;;;;;-2.03;100.00;99953.66;5271565;33;34472;-84
2021/12/08 07:39:14;;;;;;;68.22;35.33;;;;;;;-1.76;100.00;99953.50;5274816;33;33727;-84
2021/12/08 07:42:27;;;;;;;71.20;34.42;;;;;;;-1.55;100.00;99957.25;5279964;33;34478;-83
2021/12/08 07:45:38;;;;;;;81.53;39.70;;;;;;;-1.55;99.33;99959.03;5279415;33;35381;-88
2021/12/08 07:48:50;;;;;;;76.90;35.90;;;;;;;-1.56;100.00;99957.34;5276416;33;34197;-85
2021/12/08 07:52:06;;;;;;;69.95;33.42;;;;;;;-1.71;99.42;99956.66;5277869;33;34998;-84
2021/12/08 07:55:17;;;;;;;62.28;29.42;;;;;;;-1.71;99.16;99951.38;5266773;33;33952;-84
2021/12/08 07:58:21;;;;;;;56.37;28.00;;;;;;;-1.51;97.87;99965.78;5272182;33;34128;-84
2021/12/08 08:01:29;;;;;;;64.15;28.90;;;;;;;-1.69;100.00;99954.75;5269080;33;34793;-84
2021/12/08 08:04:37;;;;;;;58.53;26.10;;;;;;;-1.52;100.00;99964.09;5282934;33;33876;-84
2021/12/08 08:07:42;;;;;;;54.95;26.98;;;;;;;-1.41;98.87;99958.88;5281047;33;34813;-84
2021/12/08 08:10:53;;;;;;;52.67;26.05;;;;;;;-1.32;97.85;99960.00;5276595;33;34217;-84
2021/12/08 08:13:56;;;;;;;;;;;;;;;-1.25;96.75;99964.72;5282614;33;34476;-84
2021/12/08 08:17:00;;;;;;;57.05;27.83;;;;;;;-1.46;98.92;99976.88;5284005;33;34648;-84
2021/12/08 08:20:17;;;;;;;57.25;27.17;;;;;;;-1.21;97.54;99960.06;5270364;33;33777;-84
2021/12/08 08:23:23;;;;;;;55.78;27.62;;;;;;;-1.19;98.68;99959.00;5284969;33;34359;-84
2021/12/08 08:26:29;;;;;;;53.53;27.00;;;;;;;-1.01;95.84;99971.78;5289143;33;33509;-84
2021/12/08 08:29:33;;;;;;;55.47;26.27;;;;;;;-0.95;94.79;99966.06;5270507;33;33303;-84
2021/12/08 08:32:39;;;;;;;56.47;28.27;;;;;;;-0.95;95.66;99968.69;5266920;33;34565;-83
2021/12/08 08:35:49;;;;;;;48.95;25.67;;;;;;;-0.93;96.37;99982.66;5263148;33;34638;-84
2021/12/08 08:39:02;;;;;;;57.97;26.90;;;;;;;-0.79;95.83;99977.19;5265838;33;33686;-84
2021/12/08 08:42:16;;;;;;;62.28;27.75;;;;;;;-0.63;96.34;99973.38;5270569;33;34799;-84
2021/12/08 08:45:26;;;;;;;53.10;26.95;;;;;;;-0.40;95.01;99976.91;5266624;33;33605;-88
2021/12/08 08:48:39;;;;;;;56.17;26.77;;;;;;;-0.27;93.78;99980.28;5265985;33;34278;-84
2021/12/08 08:52:09;;;;;;;55.42;26.70;;;;;;;0.03;91.90;99976.19;5282527;33;34182;-84
2021/12/08 08:55:27;;;;;;;59.13;26.45;;;;;;;0.11;92.01;99979.94;5259105;33;34057;-84
2021/12/08 08:58:33;;;;;;;54.58;26.70;;;;;;;0.18;90.71;99975.84;5276331;33;34623;-85
2021/12/08 09:01:44;;;;;;;52.95;26.40;;;;;;;0.02;91.44;99978.00;5277315;33;34395;-85
2021/12/08 09:04:58;;;;;;;55.67;26.60;;;;;;;-0.04;92.12;99976.69;5277245;33;33712;-84
2021/12/08 09:08:03;;;;;;;53.97;25.42;;;;;;;0.17;91.02;99966.22;5268631;33;34799;-83
2021/12/08 09:11:13;;;;;;;55.03;26.08;;;;;;;0.41;89.05;99957.28;5270765;33;33935;-83
2021/12/08 09:14:22;;;;;;;51.80;24.33;;;;;;;0.48;89.34;99963.78;5272884;33;34550;-84
2021/12/08 09:17:40;;;;;;;53.70;26.35;;;;;;;0.42;89.60;99956.31;5273968;33;33976;-84
2021/12/08 09:20:58;;;;;;;47.92;25.35;;;;;;;0.39;89.90;99953.94;5276011;33;34256;-83
2021/12/08 09:24:34;;;;;;;46.00;25.62;;;;;;;0.59;88.33;99947.87;5262621;33;33820;-86
2021/12/08 09:27:47;;;;;;;50.45;26.55;;;;;;;0.66;88.85;99942.91;5255060;33;34830;-84
2021/12/08 09:31:02;;;;;;;51.15;27.08;;;;;;;0.77;88.57;99939.37;5269378;33;34336;-84
2021/12/08 09:34:09;;;;;;;51.70;24.30;;;;;;;0.77;87.47;99932.28;5264484;33;33954;-83
2021/12/08 09:37:19;;;;;;;51.17;26.83;;;;;;;0.83;86.33;99926.47;5267400;33;32490;-83
2021/12/08 09:40:22;;;;;;;52.97;27.65;;;;;;;0.90;86.48;99930.28;5264570;33;35287;-84
2021/12/08 09:43:36;;;;;;;50.03;26.85;;;;;;;0.94;86.06;99928.25;5261998;33;33828;-83
2021/12/08 09:46:44;;;;;;;65.50;28.08;;;;;;;0.95;85.12;99924.59;5270404;33;34574;-84
2021/12/08 09:49:49;;;;;;;51.85;28.58;;;;;;;0.98;85.60;99921.69;5268316;33;34233;-83
2021/12/08 09:52:54;;;;;;;56.95;27.87;;;;;;;0.96;84.41;99920.13;5255335;33;268156;-84
2021/12/08 09:55:57;;;;;;;55.25;27.70;;;;;;;1.19;84.73;99918.22;5261136;33;34104;-84
2021/12/08 09:59:02;;;;;;;58.40;28.70;;;;;;;1.33;84.38;99915.25;5263422;33;34020;-84
2021/12/08 10:02:08;;;;;;;52.08;27.15;;;;;;;1.45;83.38;99906.25;5278855;33;34616;-84
2021/12/08 10:05:15;;;;;;;51.05;27.40;;;;;;;1.63;81.97;99917.09;5280758;33;34253;-84
2021/12/08 10:08:18;;;;;;;55.15;27.37;;;;;;;1.58;81.98;99906.88;5281706;33;34318;-84
2021/12/08 10:11:21;;;;;;;53.17;27.67;;;;;;;1.59;82.65;99902.41;5278974;33;34457;-84
2021/12/08 10:14:24;;;;;;;58.13;27.85;;;;;;;1.75;82.16;99892.13;5278769;33;33944;-84
2021/12/08 10:17:28;;;;;;;55.83;26.02;;;;;;;1.86;81.78;99891.22;5281618;33;34155;-84
2021/12/08 10:20:35;;;;;;;51.08;25.45;;;;;;;1.85;81.35;99886.06;5282707;33;33715;-83
2021/12/08 10:23:42;;;;;;;55.22;28.35;;;;;;;1.87;81.12;99887.56;5265065;33;34183;-84
2021/12/08 10:26:46;;;;;;;56.92;28.73;;;;;;;1.92;81.78;99881.88;5277205;33;34033;-84
2021/12/08 10:29:49;;;;;;;66.07;31.08;;;;;;;2.09;81.96;99880.41;5283450;33;34278;-85
2021/12/08 10:32:53;;;;;;;58.15;30.40;;;;;;;2.14;80.14;99876.38;5279455;33;34470;-88
2021/12/08 10:36:03;;;;;;;59.95;29.60;;;;;;;2.07;81.15;99869.06;5274347;33;34294;-84
2021/12/08 10:39:08;;;;;;;51.90;28.02;;;;;;;2.25;79.67;99868.28;5293617;33;34339;-84
2021/12/08 10:42:29;;;;;;;56.70;29.10;;;;;;;2.34;77.81;99871.94;5289508;33;34494;-84
2021/12/08 10:45:31;;;;;;;53.85;27.73;;;;;;;2.19;78.04;99862.66;5293472;33;35090;-86
2021/12/08 10:48:43;;;;;;;51.95;28.73;;;;;;;2.35;77.82;99868.28;5283583;33;33694;-86
2021/12/08 10:55:17;;;;;;;52.17;26.45;;;;;;;2.50;76.24;99858.09;5275590;33;34524;-86
2021/12/08 10:58:27;;;;;;;61.72;30.40;;;;;;;2.55;77.45;99857.69;5275546;33;34061;-84
2021/12/08 11:01:30;;;;;;;53.22;27.37;;;;;;;2.54;76.71;99848.03;5274341;33;33816;-84
2021/12/08 11:04:33;;;;;;;50.88;26.83;;;;;;;2.57;77.18;99859.22;5273635;33;34233;-84
2021/12/08 11:07:57;;;;;;;49.60;26.45;;;;;;;2.58;76.41;99850.28;5274049;33;34564;-84
2021/12/08 11:11:07;;;;;;;54.33;27.60;;;;;;;2.61;78.14;99836.72;5273090;33;33833;-84
2021/12/08 11:14:11;;;;;;;53.42;28.95;;;;;;;2.87;77.09;99841.47;5272844;33;34217;-84
2021/12/08 11:17:28;;;;;;;54.67;28.67;;;;;;;3.02;75.45;99844.53;5273436;33;34263;-84
2021/12/08 11:20:33;;;;;;;53.20;29.30;;;;;;;3.25;73.72;99818.44;5272506;33;34703;-84
2021/12/08 11:23:44;;;;;;;57.53;29.05;;;;;;;3.31;75.12;99813.38;5273683;33;35122;-88
2021/12/08 11:26:50;;;;;;;56.45;29.42;;;;;;;3.46;73.69;99815.56;5269782;33;34373;-85
2021/12/08 11:29:52;;;;;;;56.65;28.55;;;;;;;3.84;72.25;99810.03;5273940;33;34412;-85
2021/12/08 11:33:17;;;;;;;58.75;29.48;;;;;;;4.22;71.38;99812.63;5275364;33;33708;-85
2021/12/08 11:36:25;;;;;;;56.33;30.48;;;;;;;4.34;70.09;99810.59;5274658;33;33585;-85
2021/12/08 11:39:37;;;;;;;51.30;27.35;;;;;;;4.73;68.56;99811.91;5270771;33;34018;-85
2021/12/08 11:42:40;;;;;;;52.70;27.05;;;;;;;4.94;66.32;99811.59;5280835;33;34160;-84
2021/12/08 11:45:43;;;;;;;51.30;24.67;;;;;;;5.16;65.69;99823.59;5273875;33;35492;-84
2021/12/08 11:49:05;;;;;;;53.58;25.83;;;;;;;5.26;64.46;99809.28;5276519;33;34520;-86
2021/12/08 11:52:15;;;;;;;49.25;25.37;;;;;;;5.62;63.85;99812.69;5287814;33;34317;-86
2021/12/08 11:55:20;;;;;;;47.53;25.70;;;;;;;5.83;61.92;99801.56;5286304;33;34322;-87
2021/12/08 11:58:23;;;;;;;49.13;24.65;;;;;;;6.03;61.84;99804.84;5270834;33;34574;-86
2021/12/08 12:01:26;;;;;;;50.17;27.45;;;;;;;6.03;61.05;99804.84;5261933;33;33867;-86
2021/12/08 12:04:29;;;;;;;49.67;26.25;;;;;;;5.98;60.86;99799.16;5277490;33;34897;-86
2021/12/08 12:07:31;;;;;;;52.65;27.05;;;;;;;6.29;59.55;99794.87;5281283;33;34815;-86
2021/12/08 12:10:39;;;;;;;47.30;24.52;;;;;;;6.70;58.58;99794.94;5281372;33;34420;-87
2021/12/08 12:13:45;;;;;;;51.65;28.67;;;;;;;7.18;57.33;99790.50;5276152;33;34140;-87
2021/12/08 12:16:48;;;;;;;51.25;29.40;;;;;;;6.82;58.18;99792.75;5266498;33;33639;-86
2021/12/08 12:20:16;;;;;;;48.20;27.92;;;;;;;7.13;56.56;99792.88;5273310;33;36054;-86
2021/12/08 12:23:49;;;;;;;54.72;28.95;;;;;;;7.83;55.40;99785.94;5273530;33;35491;-87
2021/12/08 12:27:04;;;;;;;52.62;28.80;;;;;;;7.70;55.03;99782.00;5274871;33;33954;-87
2021/12/08 12:30:10;;;;;;;53.75;28.90;;;;;;;7.93;54.19;99782.06;5263491;33;34216;-87
2021/12/08 12:33:20;;;;;;;47.33;27.13;;;;;;;8.13;53.79;99768.19;5263291;33;33946;-86
2021/12/08 12:36:27;;;;;;;46.45;27.45;;;;;;;9.19;50.69;99767.38;5265060;33;33709;-87
2021/12/08 12:39:31;;;;;;;43.53;25.25;;;;;;;9.87;48.77;99769.94;5259394;33;34132;-87
2021/12/08 12:42:47;;;;;;;41.70;21.83;;;;;;;10.84;46.46;99764.13;5287686;33;33802;-87
2021/12/08 12:46:02;;;;;;;41.65;21.75;;;;;;;11.37;43.91;99758.28;5266434;33;34000;-86
2021/12/08 12:49:21;;;;;;;40.45;22.27;;;;;;;11.73;43.84;99763.47;5271594;33;33812;-87
2021/12/08 12:52:52;;;;;;;42.70;23.20;;;;;;;12.27;42.14;99759.94;5262485;33;33777;-87
2021/12/08 12:55:55;;;;;;;36.92;21.25;;;;;;;12.07;42.03;99754.47;5255787;33;33630;-87
2021/12/08 12:59:10;;;;;;;33.20;19.52;;;;;;;10.90;44.39;99758.78;5263144;33;34403;-87
2021/12/08 13:02:24;;;;;;;36.80;19.77;;;;;;;9.53;47.61;99747.16;5257846;33;34625;-91
2021/12/08 13:05:47;;;;;;;35.83;22.10;;;;;;;7.77;53.25;99741.09;5268200;33;34035;-87
2021/12/08 13:08:51;;;;;;;35.35;20.85;;;;;;;6.21;59.24;99751.28;5257163;33;33998;-84
2021/12/08 13:12:15;;;;;;;39.42;20.30;;;;;;;5.25;61.81;99744.41;5266162;33;34112;-85
2021/12/08 13:15:21;;;;;;;35.15;20.17;;;;;;;4.36;65.68;99742.81;5267670;33;33557;-85
2021/12/08 13:18:27;;;;;;;36.85;18.75;;;;;;;4.04;68.34;99736.19;5269276;33;33447;-86
2021/12/08 13:21:40;;;;;;;36.55;19.60;;;;;;;3.71;69.42;99750.97;5264904;33;34066;-85
2021/12/08 13:24:43;;;;;;;44.25;20.50;;;;;;;3.38;71.73;99752.41;5261710;33;33739;-86
2021/12/08 13:27:56;;;;;;;34.30;19.10;;;;;;;3.37;72.07;99748.94;5269373;33;33823;-85
2021/12/08 13:31:08;;;;;;;38.88;20.98;;;;;;;3.12;73.12;99750.41;5256553;33;34216;-86
2021/12/08 13:34:11;;;;;;;36.17;20.02;;;;;;;2.98;75.38;99750.88;5271304;33;34034;-85
2021/12/08 13:37:16;;;;;;;40.75;21.62;;;;;;;2.91;74.96;99744.47;5261233;33;35319;-85
2021/12/08 13:40:19;;;;;;;40.85;19.52;;;;;;;2.71;75.80;99747.16;5265593;33;33689;-85
2021/12/08 13:43:37;;;;;;;37.13;19.37;;;;;;;2.66;76.48;99756.53;5262938;33;34094;-85
2021/12/08 13:46:45;;;;;;;41.10;20.25;;;;;;;2.64;76.75;99763.84;5265837;33;34579;-85
2021/12/08 13:49:52;;;;;;;37.10;20.42;;;;;;;2.66;77.28;99760.06;5263144;33;34121;-85
2021/12/08 13:52:55;;;;;;;40.17;19.17;;;;;;;2.49;77.84;99763.44;5287432;33;33747;-85
2021/12/08 13:56:00;;;;;;;39.08;20.80;;;;;;;2.47;78.26;99766.22;5300722;33;35217;-85
2021/12/08 13:59:03;;;;;;;41.42;20.25;;;;;;;2.43;78.38;99764.84;5293868;33;35415;-89
2021/12/08 14:02:27;;;;;;;36.50;19.87;;;;;;;2.38;79.08;99755.63;5286686;33;33905;-89
2021/12/08 14:05:38;;;;;;;37.67;20.17;;;;;;;2.30;79.89;99758.97;5286001;33;33952;-85
2021/12/08 14:08:43;;;;;;;38.38;18.90;;;;;;;2.37;79.27;99767.19;5277362;33;33646;-86
2021/12/08 14:11:50;;;;;;;36.75;20.45;;;;;;;2.28;79.99;99760.91;5277124;33;34137;-85
2021/12/08 14:14:58;;;;;;;38.70;20.33;;;;;;;2.21;80.97;99759.81;5285895;33;34432;-86
2021/12/08 14:18:15;;;;;;;36.45;19.62;;;;;;;2.09;81.57;99760.91;5280500;33;34203;-86
2021/12/08 14:21:24;;;;;;;41.05;20.08;;;;;;;2.01;81.73;99758.94;5275599;33;33905;-85
2021/12/08 14:24:27;;;;;;;40.58;21.25;;;;;;;1.92;82.45;99751.81;5279349;33;33887;-85
2021/12/08 14:27:30;;;;;;;41.72;22.33;;;;;;;1.95;82.27;99759.50;5273728;33;33768;-85
2021/12/08 14:30:33;;;;;;;41.40;21.25;;;;;;;1.83;83.25;99758.78;5286142;33;33912;-85
2021/12/08 14:33:37;;;;;;;53.05;22.45;;;;;;;1.71;84.16;99766.03;5270474;33;33477;-85
2021/12/08 14:37:03;;;;;;;42.50;20.80;;;;;;;1.59;84.67;99770.59;5263253;33;33641;-85
2021/12/08 14:40:10;;;;;;;39.40;20.08;;;;;;;1.47;85.58;99765.53;5263284;33;32655;-85
2021/12/08 14:43:35;;;;;;;36.78;18.98;;;;;;;1.42;85.88;99770.41;5263234;33;34769;-84
2021/12/08 14:46:42;;;;;;;36.65;17.20;;;;;;;1.38;85.32;99767.19;5256872;33;33735;-84
2021/12/08 14:49:55;;;;;;;34.35;15.93;;;;;;;1.50;83.77;99770.59;5267621;33;33994;-84
2021/12/08 14:52:58;;;;;;;30.27;16.08;;;;;;;1.36;83.92;99771.78;5292261;33;34731;-85
2021/12/08 14:56:11;;;;;;;30.88;15.13;;;;;;;1.29;84.19;99773.31;5291186;33;33872;-85
2021/12/08 14:59:14;;;;;;;31.20;15.35;;;;;;;1.23;84.03;99760.53;5279228;33;34521;-86
2021/12/08 15:02:41;;;;;;;32.08;15.60;;;;;;;1.15;85.00;99755.09;5272987;33;34333;-86
2021/12/08 15:05:47;;;;;;;31.17;15.27;;;;;;;1.24;83.80;99749.81;5264449;33;33492;-85
2021/12/08 15:08:51;;;;;;;32.35;16.30;;;;;;;1.03;84.71;99747.22;5256262;33;33999;-86
2021/12/08 15:11:55;;;;;;;30.02;15.45;;;;;;;0.93;85.52;99742.84;5256932;33;33560;-86
2021/12/08 15:14:58;;;;;;;34.72;16.85;;;;;;;0.86;85.87;99746.03;5259448;33;34803;-86
2021/12/08 15:18:07;;;;;;;31.25;16.70;;;;;;;0.77;86.21;99746.81;5259596;33;34584;-86
2021/12/08 15:21:12;;;;;;;36.55;17.12;;;;;;;0.72;86.86;99745.50;5257114;33;34313;-86
2021/12/08 15:24:19;;;;;;;31.35;15.35;;;;;;;0.79;86.56;99749.31;5257277;33;34567;-86
2021/12/08 15:27:22;;;;;;;35.53;15.20;;;;;;;0.71;87.00;99744.69;5256977;33;34673;-85
2021/12/08 15:30:55;;;;;;;36.25;16.50;;;;;;;0.58;87.04;99752.81;5257079;33;33833;-86
2021/12/08 15:34:26;;;;;;;37.63;17.95;;;;;;;0.48;87.71;99756.38;5249336;33;34580;-85
2021/12/08 15:37:31;;;;;;;36.17;17.37;;;;;;;0.55;87.91;99749.59;5257362;33;34295;-86
2021/12/08 15:40:38;;;;;;;33.30;17.52;;;;;;;0.44;88.62;99756.63;5273726;33;33886;-86
2021/12/08 15:43:41;;;;;;;33.38;17.50;;;;;;;0.34;88.88;99763.66;5273828;33;34232;-90
2021/12/08 15:46:47;;;;;;;35.40;17.77;;;;;;;0.26;89.27;99763.44;5274440;33;34160;-90
2021/12/08 15:49:51;;;;;;;37.72;18.33;;;;;;;0.24;89.94;99767.22;5275156;33;34043;-87
2021/12/08 15:53:01;;;;;;;36.30;17.80;;;;;;;0.29;90.43;99770.28;5263697;33;33476;-86
2021/12/08 15:56:12;;;;;;;48.08;23.95;;;;;;;0.21;90.48;99757.72;5265166;33;34026;-86
2021/12/08 15:59:39;;;;;;;42.13;21.30;;;;;;;0.22;91.04;99741.69;5274722;33;34361;-86
2021/12/08 16:02:43;;;;;;;40.58;20.40;;;;;;;0.14;91.20;99743.28;5265982;33;34612;-86
2021/12/08 16:05:46;;;;;;;40.80;19.62;;;;;;;0.06;91.92;99751.88;5276863;33;33852;-86
2021/12/08 16:08:53;;;;;;;38.67;20.40;;;;;;;0.12;91.85;99755.84;5276844;33;34014;-86
2021/12/08 16:12:08;;;;;;;39.70;19.10;;;;;;;0.06;92.62;99756.31;5275787;33;34106;-85
2021/12/08 16:15:11;;;;;;;43.03;19.92;;;;;;;-0.01;93.56;99767.41;5276461;33;34289;-85
2021/12/08 16:18:25;;;;;;;44.85;20.17;;;;;;;-0.03;94.27;99761.41;5276642;33;35594;-85
2021/12/08 16:21:28;;;;;;;42.55;20.30;;;;;;;-0.10;94.51;99757.56;5273596;33;33817;-85
2021/12/08 16:24:31;;;;;;;43.63;22.17;;;;;;;-0.15;94.84;99743.88;5271647;33;34660;-86
2021/12/08 16:27:34;;;;;;;43.10;19.62;;;;;;;-0.13;95.22;99747.25;5271535;33;34753;-86
2021/12/08 16:30:39;;;;;;;42.17;20.25;;;;;;;-0.26;96.00;99760.62;5270791;33;33978;-86
2021/12/08 16:33:42;;;;;;;40.88;20.50;;;;;;;-0.27;96.56;99766.88;5271687;33;34933;-86
2021/12/08 16:36:47;;;;;;;44.78;20.98;;;;;;;-0.26;96.00;99770.38;5271528;33;34313;-86
2021/12/08 16:43:06;;;;;;;40.67;20.85;;;;;;;-0.46;96.26;99769.31;5271647;33;34036;-86
2021/12/08 16:46:08;;;;;;;42.13;20.12;;;;;;;-0.45;96.98;99776.28;5271979;33;33552;-86
2021/12/08 16:49:12;;;;;;;45.25;21.52;;;;;;;-0.47;97.12;99776.41;5271997;33;34719;-86
